Time;durP1;ratioP1;P1;durP2;ratioP2;P2;SDS_P1;SDS_P2;PMS_P1;PMS_P2;Temp;Humidity;BMP_temperature;BMP_pressure;BME280_temperature;BME280_humidity;BME280_pressure;Samples;Min_cycle;Max_cycle;Signal;HPM_P1;HPM_P2
2024/02/21 00:01:46;;;;;;;11.75;7.20;;;;;;;4.77;79.18;95370.53;5016021;28;20025;-76
2024/02/21 00:04:12;;;;;;;14.07;8.15;;;;;;;4.98;78.13;95362.59;5017057;28;20079;-77
2024/02/21 00:06:37;;;;;;;11.10;7.55;;;;;;;5.08;77.84;95362.06;5015331;28;20030;-77
2024/02/21 00:09:02;;;;;;;13.05;7.68;;;;;;;5.15;77.66;95359.97;5016956;28;20530;-76
2024/02/21 00:11:28;;;;;;;15.45;8.65;;;;;;;4.98;78.00;95360.03;5016801;28;20018;-77
2024/02/21 00:13:53;;;;;;;14.00;8.88;;;;;;;4.88;78.53;95359.69;5016938;28;20041;-76
2024/02/21 00:16:19;;;;;;;14.05;8.85;;;;;;;4.93;77.95;95343.09;5015719;28;20036;-76
2024/02/21 00:18:44;;;;;;;13.38;8.98;;;;;;;4.91;78.75;95352.63;5016828;28;20561;-76
2024/02/21 00:21:14;;;;;;;13.40;8.07;;;;;;;4.86;78.51;95353.78;5015823;28;20033;-76
2024/02/21 00:23:40;;;;;;;14.75;8.40;;;;;;;4.93;78.41;95355.97;5034425;28;20049;-76
2024/02/21 00:26:05;;;;;;;14.13;8.60;;;;;;;4.56;78.99;95349.28;5016795;28;20480;-76
2024/02/21 00:28:31;;;;;;;13.93;7.43;;;;;;;4.46;79.10;95342.97;4992882;28;20034;-76
2024/02/21 00:30:56;;;;;;;17.38;9.10;;;;;;;4.66;79.18;95352.25;4999605;28;20029;-76
2024/02/21 00:33:22;;;;;;;17.85;8.77;;;;;;;4.81;78.39;95338.56;5014385;28;20488;-77
2024/02/21 00:35:47;;;;;;;14.40;7.75;;;;;;;4.99;77.80;95354.81;5013000;28;20058;-76
2024/02/21 00:38:12;;;;;;;16.05;9.07;;;;;;;4.93;78.38;95340.53;5011637;28;20091;-76
2024/02/21 00:40:38;;;;;;;12.30;7.45;;;;;;;4.73;78.22;95340.69;5033554;28;20026;-76
2024/02/21 00:43:03;;;;;;;12.73;7.88;;;;;;;4.78;78.24;95351.59;5016310;28;20034;-77
2024/02/21 00:45:29;;;;;;;14.52;9.73;;;;;;;5.04;77.54;95349.41;5016335;28;20041;-77
2024/02/21 00:47:54;;;;;;;16.60;11.88;;;;;;;5.01;78.07;95345.25;5024021;28;20029;-76
2024/02/21 00:50:19;;;;;;;16.27;8.35;;;;;;;4.90;77.85;95348.41;5010642;28;20534;-76
2024/02/21 00:52:45;;;;;;;12.35;8.43;;;;;;;4.99;77.52;95341.94;5014089;28;20147;-77
2024/02/21 00:55:10;;;;;;;83.63;24.10;;;;;;;5.18;76.75;95343.53;5015544;28;20026;-76
2024/02/21 00:57:36;;;;;;;51.13;18.38;;;;;;;5.01;77.22;95340.09;5014710;28;20056;-76
2024/02/21 01:00:02;;;;;;;25.27;11.85;;;;;;;5.07;77.24;95349.25;5016126;28;20037;-76
2024/02/21 01:02:28;;;;;;;28.35;11.32;;;;;;;4.97;78.47;95348.91;5016029;28;20021;-76
2024/02/21 01:04:53;;;;;;;15.98;9.13;;;;;;;5.10;77.85;95339.63;5033776;28;20115;-76
2024/02/21 01:07:19;;;;;;;14.13;8.43;;;;;;;4.92;78.03;95322.56;5032200;28;20415;-77
2024/02/21 01:09:44;;;;;;;13.32;7.93;;;;;;;4.95;77.89;95324.16;5033586;28;20482;-76
2024/02/21 01:12:09;;;;;;;10.95;7.50;;;;;;;4.82;78.26;95321.38;5032348;28;20059;-76
2024/02/21 01:14:35;;;;;;;9.98;6.78;;;;;;;4.65;78.66;95322.25;5015759;28;20038;-77
2024/02/21 01:17:01;;;;;;;10.52;6.85;;;;;;;4.90;78.05;95327.81;4995208;28;20512;-77
2024/02/21 01:19:26;;;;;;;12.13;7.53;;;;;;;5.10;76.90;95325.94;5013559;28;20038;-76
2024/02/21 01:21:52;;;;;;;12.32;7.97;;;;;;;4.98;77.35;95316.25;4996124;28;20029;-77
2024/02/21 01:24:17;;;;;;;13.90;7.43;;;;;;;4.93;77.64;95321.63;4979507;28;20049;-77
2024/02/21 01:26:42;;;;;;;11.23;7.32;;;;;;;5.00;77.66;95322.16;5030370;28;20037;-76
2024/02/21 01:29:08;;;;;;;11.73;6.68;;;;;;;4.63;77.30;95273.44;5033134;28;20484;-76
2024/02/21 01:31:33;;;;;;;10.00;6.72;;;;;;;5.01;77.12;95310.94;4998992;28;20029;-77
2024/02/21 01:33:59;;;;;;;12.93;7.15;;;;;;;4.82;77.32;95316.22;4997966;28;20034;-76
2024/02/21 01:36:24;;;;;;;10.38;6.72;;;;;;;4.76;77.68;95308.81;5015116;28;20493;-76
2024/02/21 01:38:49;;;;;;;11.75;7.00;;;;;;;4.73;77.88;95314.97;4995773;28;20030;-76
2024/02/21 01:41:16;;;;;;;11.02;6.78;;;;;;;4.81;77.45;95310.25;4995488;28;20463;-76
2024/02/21 01:43:41;;;;;;;10.93;6.70;;;;;;;4.96;77.41;95305.19;5021395;28;20033;-77
2024/02/21 01:46:07;;;;;;;9.68;6.70;;;;;;;4.93;77.37;95303.63;5010598;28;20034;-77
2024/02/21 01:48:33;;;;;;;11.15;7.05;;;;;;;4.71;77.49;95293.66;4995637;28;20512;-77
2024/02/21 01:50:58;;;;;;;11.43;7.15;;;;;;;4.79;76.94;95264.91;5011892;28;20109;-77
2024/02/21 01:53:32;;;;;;;11.25;7.00;;;;;;;4.77;77.12;95305.38;5026110;28;20026;-77
2024/02/21 01:55:58;;;;;;;13.50;7.15;;;;;;;4.74;77.34;95308.09;4999015;28;20040;-76
2024/02/21 01:58:23;;;;;;;12.40;7.60;;;;;;;4.55;77.89;95283.31;5014862;28;20029;-77
2024/02/21 02:00:49;;;;;;;13.00;7.13;;;;;;;4.84;77.71;95302.38;5031170;28;20026;-76
2024/02/21 02:03:16;;;;;;;12.35;7.55;;;;;;;4.65;77.08;95287.06;4998352;28;20091;-77
2024/02/21 02:05:46;;;;;;;11.82;7.18;;;;;;;4.69;77.97;95293.72;4999248;28;20036;-76
2024/02/21 02:08:15;;;;;;;11.40;7.38;;;;;;;4.63;78.41;95300.94;4998355;28;20419;-77
2024/02/21 02:10:41;;;;;;;13.38;7.32;;;;;;;4.72;78.71;95299.63;5013517;28;20037;-77
2024/02/21 02:13:06;;;;;;;14.45;8.50;;;;;;;4.35;79.18;95296.38;4998388;28;20032;-77
2024/02/21 02:15:48;;;;;;;14.00;8.38;;;;;;;4.65;77.92;95291.38;4981866;28;20499;-77
2024/02/21 02:18:13;;;;;;;;;;;;;;;4.68;78.37;95293.78;4982663;28;20515;-76
2024/02/21 02:20:39;;;;;;;13.70;8.20;;;;;;;4.69;78.70;95292.88;5013729;28;19960;-76
2024/02/21 02:23:28;;;;;;;15.13;8.90;;;;;;;4.66;78.74;95293.03;5014131;28;20021;-77
2024/02/21 02:25:53;;;;;;;15.70;8.55;;;;;;;4.80;78.54;95290.56;5017248;28;20492;-77
2024/02/21 02:28:19;;;;;;;16.10;9.00;;;;;;;4.75;77.98;95281.44;5013510;28;20048;-76
2024/02/21 02:30:44;;;;;;;14.75;7.93;;;;;;;4.88;78.38;95290.19;5014543;28;20044;-77
2024/02/21 02:33:10;;;;;;;17.52;9.85;;;;;;;4.73;78.52;95296.94;5014324;28;20025;-77
2024/02/21 02:35:36;;;;;;;15.57;9.40;;;;;;;4.62;78.11;95286.38;5013937;28;20495;-77
2024/02/21 02:38:02;;;;;;;16.30;9.05;;;;;;;4.51;78.18;95273.25;4993846;28;20141;-76
2024/02/21 02:40:27;;;;;;;17.30;9.93;;;;;;;4.58;78.84;95290.03;4978399;28;20038;-77
2024/02/21 02:42:54;;;;;;;18.33;9.02;;;;;;;4.60;78.70;95265.06;5011770;28;20057;-76
2024/02/21 02:45:20;;;;;;;16.75;9.45;;;;;;;4.59;78.57;95276.25;5001301;28;20087;-76
2024/02/21 02:47:46;;;;;;;17.45;10.15;;;;;;;4.74;78.02;95288.34;4997085;28;20105;-76
2024/02/21 02:50:12;;;;;;;20.38;11.43;;;;;;;4.77;77.95;95285.59;5031743;28;20033;-76
2024/02/21 02:52:38;;;;;;;16.13;9.25;;;;;;;4.78;77.47;95279.53;4980791;28;20092;-76
2024/02/21 02:55:04;;;;;;;17.58;10.35;;;;;;;4.78;77.61;95276.13;5011872;28;20033;-76
2024/02/21 02:57:29;;;;;;;20.58;10.23;;;;;;;4.82;77.14;95278.47;5030500;28;20089;-76
2024/02/21 02:59:55;;;;;;;19.58;10.65;;;;;;;4.44;78.30;95283.03;5013743;28;20454;-76
2024/02/21 03:02:20;;;;;;;21.02;10.73;;;;;;;4.61;78.20;95285.56;5013805;28;20485;-77
2024/02/21 03:04:45;;;;;;;18.70;10.23;;;;;;;4.42;78.67;95271.97;5012400;28;20036;-77
2024/02/21 03:07:11;;;;;;;17.50;10.40;;;;;;;4.56;78.39;95282.38;5013701;28;20037;-77
2024/02/21 03:09:40;;;;;;;18.55;10.80;;;;;;;4.56;77.84;95291.84;4997267;28;20033;-77
2024/02/21 03:12:08;;;;;;;17.48;10.05;;;;;;;4.59;78.15;95292.50;5013573;28;20455;-76
2024/02/21 03:14:34;;;;;;;18.27;10.70;;;;;;;4.53;78.22;95294.59;4993146;28;20120;-76
2024/02/21 03:16:59;;;;;;;18.55;10.70;;;;;;;4.65;77.41;95299.09;5011781;28;20500;-76
2024/02/21 03:19:25;;;;;;;21.60;11.65;;;;;;;4.42;77.62;95290.81;4996991;28;20072;-76
2024/02/21 03:21:51;;;;;;;21.75;11.82;;;;;;;4.37;78.29;95308.22;5013834;28;20048;-75
2024/02/21 03:24:19;;;;;;;22.95;13.13;;;;;;;4.27;78.34;95286.47;5012647;28;20037;-76
2024/02/21 03:26:47;;;;;;;21.90;11.48;;;;;;;4.19;79.65;95291.97;4997773;28;20029;-77
2024/02/21 03:29:12;;;;;;;24.92;12.90;;;;;;;4.36;79.13;95310.88;5013650;28;20033;-76
2024/02/21 03:31:38;;;;;;;21.55;12.52;;;;;;;4.40;79.07;95307.22;5029385;28;20017;-76
2024/02/21 03:34:04;;;;;;;21.63;11.98;;;;;;;4.50;79.29;95312.75;5030781;28;20030;-76
2024/02/21 03:36:29;;;;;;;24.08;12.57;;;;;;;4.39;79.58;95296.13;4996153;28;20050;-76
2024/02/21 03:38:54;;;;;;;23.05;12.45;;;;;;;4.59;78.97;95307.94;5012644;28;20032;-76
2024/02/21 03:41:20;;;;;;;24.35;13.85;;;;;;;4.52;79.00;95313.50;4976298;28;20022;-76
2024/02/21 03:43:45;;;;;;;28.23;13.57;;;;;;;4.28;79.69;95307.84;4993553;28;20416;-77
2024/02/21 03:46:11;;;;;;;21.70;12.23;;;;;;;4.61;79.87;95311.28;4994223;28;20042;-77
2024/02/21 03:48:36;;;;;;;23.08;12.60;;;;;;;4.64;79.13;95311.13;5013261;28;20026;-76
2024/02/21 03:51:02;;;;;;;22.80;13.05;;;;;;;4.61;79.22;95315.59;5012094;28;20051;-77
2024/02/21 03:53:28;;;;;;;23.83;12.02;;;;;;;4.72;79.06;95317.63;5030769;28;20519;-76
2024/02/21 03:55:53;;;;;;;33.10;16.33;;;;;;;4.58;79.79;95320.91;5019096;28;20500;-77
2024/02/21 03:58:19;;;;;;;28.10;14.38;;;;;;;4.69;79.53;95323.78;4993347;28;20458;-76
2024/02/21 04:00:44;;;;;;;25.08;13.13;;;;;;;4.79;79.27;95318.97;5027693;28;20042;-76
2024/02/21 04:03:10;;;;;;;23.88;13.05;;;;;;;4.66;78.68;95305.91;5028710;28;20022;-77
2024/02/21 04:05:35;;;;;;;24.75;13.23;;;;;;;4.65;79.24;95322.25;4978444;28;20037;-77
2024/02/21 04:08:04;;;;;;;26.98;13.77;;;;;;;4.68;79.38;95320.38;5011586;28;20075;-77
2024/02/21 04:10:30;;;;;;;27.25;12.75;;;;;;;4.84;79.40;95317.81;5013102;28;20034;-77
2024/02/21 04:12:55;;;;;;;24.73;13.25;;;;;;;4.80;78.77;95307.78;5030680;28;20075;-77
2024/02/21 04:15:20;;;;;;;23.02;13.15;;;;;;;4.92;78.31;95318.25;4996477;28;20087;-76
2024/02/21 04:17:46;;;;;;;25.10;13.25;;;;;;;4.58;78.98;95297.75;5030820;28;20080;-76
2024/02/21 04:20:15;;;;;;;25.10;13.23;;;;;;;4.68;79.20;95306.66;4996492;28;20443;-76
2024/02/21 04:22:42;;;;;;;22.40;11.52;;;;;;;4.84;79.29;95312.66;5012901;28;20029;-76
2024/02/21 04:25:08;;;;;;;22.92;12.32;;;;;;;4.70;78.02;95309.97;5012905;28;20464;-77
2024/02/21 04:27:34;;;;;;;23.48;12.27;;;;;;;4.78;78.40;95312.16;5012767;28;20567;-76
2024/02/21 04:29:59;;;;;;;26.80;12.98;;;;;;;4.75;77.90;95318.28;5029414;28;20029;-77
2024/02/21 04:32:27;;;;;;;21.75;12.45;;;;;;;4.75;77.45;95312.31;4996434;28;20526;-77
2024/02/21 04:34:52;;;;;;;21.42;12.20;;;;;;;4.64;77.76;95271.69;5012357;28;20051;-77
2024/02/21 04:37:18;;;;;;;19.95;11.13;;;;;;;4.95;77.93;95313.84;5030317;28;20029;-76
2024/02/21 04:39:44;;;;;;;24.48;13.43;;;;;;;4.88;77.77;95316.75;5012993;28;20407;-76
2024/02/21 04:42:09;;;;;;;22.65;12.60;;;;;;;4.70;78.17;95304.81;5012895;28;20028;-77
2024/02/21 04:44:35;;;;;;;19.55;11.45;;;;;;;4.61;77.93;95310.47;5012838;28;20037;-77
2024/02/21 04:47:00;;;;;;;23.83;13.18;;;;;;;4.32;78.09;95276.78;5017021;28;20029;-77
2024/02/21 04:49:26;;;;;;;23.55;12.77;;;;;;;4.46;77.38;95297.47;5032422;28;20036;-76
2024/02/21 04:51:51;;;;;;;23.35;12.73;;;;;;;4.34;77.94;95308.38;5016340;28;20040;-75
2024/02/21 04:54:17;;;;;;;24.88;13.05;;;;;;;4.41;78.03;95320.03;5033643;28;20049;-77
2024/02/21 04:56:42;;;;;;;22.23;12.20;;;;;;;4.11;79.04;95314.66;5016246;28;20040;-77
2024/02/21 04:59:08;;;;;;;22.20;12.55;;;;;;;4.31;78.09;95312.84;5016020;28;20484;-76
2024/02/21 05:01:33;;;;;;;24.90;13.88;;;;;;;4.04;78.33;95310.75;5015848;28;20033;-77
2024/02/21 05:03:58;;;;;;;26.25;14.65;;;;;;;3.99;79.26;95316.13;5031310;28;20022;-77
2024/02/21 05:06:24;;;;;;;26.70;12.55;;;;;;;4.07;78.46;95320.03;4996204;28;20053;-76
2024/02/21 05:08:49;;;;;;;27.55;13.68;;;;;;;3.84;78.93;95319.41;5013163;28;20503;-76
2024/02/21 05:11:14;;;;;;;23.80;12.98;;;;;;;3.64;78.60;95279.25;5019069;28;20091;-77
2024/02/21 05:13:40;;;;;;;29.20;14.98;;;;;;;3.88;78.47;95320.13;4988567;28;20066;-77
2024/02/21 05:16:06;;;;;;;29.58;15.73;;;;;;;3.68;79.85;95318.50;5030680;28;20060;-76
2024/02/21 05:18:32;;;;;;;28.92;14.30;;;;;;;3.45;80.69;95327.28;5005446;28;20116;-75
2024/02/21 05:20:58;;;;;;;28.00;14.77;;;;;;;3.29;80.95;95317.75;5011495;28;20471;-77
2024/02/21 05:23:23;;;;;;;28.63;14.75;;;;;;;3.42;80.65;95325.69;5009302;28;20092;-75
2024/02/21 05:25:48;;;;;;;28.20;14.55;;;;;;;3.48;80.28;95328.00;5022640;28;20495;-76
2024/02/21 05:28:14;;;;;;;27.13;14.73;;;;;;;3.20;81.05;95327.59;5009314;28;20412;-76
2024/02/21 05:30:40;;;;;;;25.90;13.70;;;;;;;3.49;80.65;95329.66;5021617;28;20080;-76
2024/02/21 05:33:06;;;;;;;26.75;14.07;;;;;;;3.52;79.86;95331.25;5012474;28;20029;-76
2024/02/21 05:35:31;;;;;;;26.00;12.57;;;;;;;3.58;79.72;95334.34;4996473;28;20451;-76
2024/02/21 05:37:57;;;;;;;24.40;12.82;;;;;;;3.64;79.48;95332.41;5028099;28;20053;-76
2024/02/21 05:40:22;;;;;;;24.83;13.73;;;;;;;3.60;78.21;95321.44;5015131;28;20033;-76
2024/02/21 05:42:48;;;;;;;28.05;14.48;;;;;;;3.70;78.01;95339.81;5008780;28;20033;-76
2024/02/21 05:45:15;;;;;;;23.85;13.27;;;;;;;3.57;78.02;95332.69;5030700;28;20033;-78
2024/02/21 05:47:41;;;;;;;23.08;12.68;;;;;;;3.30;78.40;95328.84;5014277;28;20495;-77
2024/02/21 05:50:06;;;;;;;29.90;15.45;;;;;;;3.28;79.53;95333.19;5011977;28;20045;-79
2024/02/21 05:52:32;;;;;;;31.08;15.98;;;;;;;3.43;79.40;95342.78;4997963;28;20034;-77
2024/02/21 05:54:57;;;;;;;33.00;18.67;;;;;;;3.25;80.03;95346.19;5031065;28;20037;-79
2024/02/21 05:57:22;;;;;;;39.97;23.92;;;;;;;3.24;80.42;95354.81;5013828;28;20026;-75
2024/02/21 05:59:48;;;;;;;44.78;25.45;;;;;;;3.28;80.78;95348.59;4990467;28;20037;-76
2024/02/21 06:02:13;;;;;;;34.45;19.60;;;;;;;3.30;80.77;95349.38;5007842;28;20480;-76
2024/02/21 06:04:39;;;;;;;29.27;16.77;;;;;;;3.41;80.87;95346.31;5000783;28;20022;-75
2024/02/21 06:07:04;;;;;;;31.48;17.30;;;;;;;3.57;81.21;95355.00;4990282;28;20030;-76
2024/02/21 06:09:30;;;;;;;30.77;15.75;;;;;;;3.65;81.13;95355.47;5007672;28;20060;-76
2024/02/21 06:11:55;;;;;;;26.33;13.65;;;;;;;3.66;81.01;95353.72;5012891;28;20411;-76
2024/02/21 06:14:21;;;;;;;23.58;14.65;;;;;;;3.67;80.54;95329.69;5031780;28;20035;-76
2024/02/21 06:16:46;;;;;;;23.95;13.43;;;;;;;3.96;80.49;95367.69;5013576;28;20414;-76
2024/02/21 06:19:11;;;;;;;25.10;14.05;;;;;;;4.02;80.06;95358.84;5006219;28;20036;-76
2024/02/21 06:21:37;;;;;;;29.98;13.60;;;;;;;3.85;80.23;95361.41;5030998;28;20029;-76
2024/02/21 06:24:03;;;;;;;25.90;13.63;;;;;;;3.70;81.79;95373.22;5012732;28;20443;-76
2024/02/21 06:26:28;;;;;;;42.65;20.48;;;;;;;4.03;81.33;95376.75;4997291;28;20116;-76
2024/02/21 06:28:54;;;;;;;59.85;31.15;;;;;;;4.19;80.67;95378.59;5004235;28;20037;-76
2024/02/21 06:31:19;;;;;;;49.92;28.02;;;;;;;4.10;80.25;95373.91;5012981;28;20427;-76
2024/02/21 06:33:44;;;;;;;51.67;29.23;;;;;;;3.75;81.58;95371.25;5031287;28;20037;-76
2024/02/21 06:36:10;;;;;;;90.60;46.67;;;;;;;3.72;81.92;95341.41;4987355;28;20065;-76
2024/02/21 06:38:35;;;;;;;62.97;37.60;;;;;;;4.27;81.07;95370.50;4989764;28;20019;-76
2024/02/21 06:41:02;;;;;;;50.88;28.75;;;;;;;4.37;80.21;95372.53;4987309;28;20049;-76
2024/02/21 06:43:28;;;;;;;43.55;24.38;;;;;;;4.62;80.12;95379.03;4990451;28;20038;-76
2024/02/21 06:45:54;;;;;;;48.63;27.33;;;;;;;4.60;80.34;95386.84;4983060;28;20459;-76
2024/02/21 06:48:19;;;;;;;53.60;29.50;;;;;;;4.55;80.27;95393.13;4987883;28;20532;-76
2024/02/21 06:50:44;;;;;;;93.20;42.15;;;;;;;4.78;79.50;95385.06;4971559;28;20085;-76
2024/02/21 06:53:10;;;;;;;68.93;35.72;;;;;;;5.57;77.35;95392.09;4990751;28;20026;-76
2024/02/21 06:55:35;;;;;;;68.13;33.22;;;;;;;6.34;74.84;95365.50;4990461;28;20026;-76
2024/02/21 06:58:01;;;;;;;53.38;32.10;;;;;;;6.87;72.40;95394.28;4987303;28;20034;-76
2024/02/21 07:00:28;;;;;;;51.65;30.48;;;;;;;6.90;71.51;95388.91;4974582;28;20038;-76
2024/02/21 07:02:54;;;;;;;53.10;31.50;;;;;;;6.66;71.86;95399.78;4986009;28;20034;-76
2024/02/21 07:05:19;;;;;;;44.55;26.50;;;;;;;6.68;70.98;95379.84;4991152;28;20034;-76
2024/02/21 07:07:44;;;;;;;34.28;18.05;;;;;;;6.41;69.44;95387.47;4986466;28;20492;-76
2024/02/21 07:10:11;;;;;;;36.10;17.63;;;;;;;6.42;70.23;95385.69;4989117;28;20034;-76
2024/02/21 07:12:38;;;;;;;33.30;17.88;;;;;;;6.74;69.30;95393.31;4968712;28;20035;-76
2024/02/21 07:15:04;;;;;;;33.30;18.50;;;;;;;6.91;68.24;95390.59;4945983;28;20039;-76
2024/02/21 07:17:30;;;;;;;36.40;18.90;;;;;;;6.87;67.06;95391.69;4965834;28;20065;-76
2024/02/21 07:19:56;;;;;;;35.97;19.67;;;;;;;6.97;67.16;95397.97;4984393;28;20034;-76
2024/02/21 07:22:22;;;;;;;43.80;24.05;;;;;;;6.79;68.94;95391.31;4988884;28;20038;-76
2024/02/21 07:24:47;;;;;;;44.90;22.75;;;;;;;6.59;69.45;95405.38;4983461;28;20065;-76
2024/02/21 07:27:15;;;;;;;40.05;21.70;;;;;;;6.98;67.97;95397.06;4975057;28;20038;-76
2024/02/21 07:29:40;;;;;;;39.92;22.58;;;;;;;6.88;67.99;95390.75;4981208;28;20545;-76
2024/02/21 07:32:06;;;;;;;44.35;22.75;;;;;;;6.61;69.37;95400.97;4982158;28;20037;-78
2024/02/21 07:34:31;;;;;;;87.18;32.85;;;;;;;6.43;70.23;95400.25;4981803;28;20038;-78
2024/02/21 07:36:57;;;;;;;65.15;28.42;;;;;;;6.36;70.40;95388.63;5017796;28;20042;-80
2024/02/21 07:39:22;;;;;;;71.35;27.67;;;;;;;6.37;70.13;95390.28;5009992;28;20045;-76
2024/02/21 07:41:49;;;;;;;39.88;22.10;;;;;;;7.39;68.14;95402.31;4993171;28;20061;-81
2024/02/21 07:44:15;;;;;;;44.58;23.30;;;;;;;7.22;67.66;95373.25;5023894;28;20042;-73
2024/02/21 07:46:40;;;;;;;43.17;23.10;;;;;;;8.87;64.89;95403.31;4995390;28;20044;-76
2024/02/21 07:49:05;;;;;;;74.05;29.48;;;;;;;9.97;58.84;95400.06;4993825;28;20030;-73
2024/02/21 07:51:31;;;;;;;56.60;25.83;;;;;;;9.35;60.75;95393.16;4978031;28;20034;-74
2024/02/21 07:53:56;;;;;;;38.95;21.77;;;;;;;8.37;62.83;95384.97;5022726;28;20334;-75
2024/02/21 07:56:22;;;;;;;59.60;26.70;;;;;;;8.64;63.46;95397.91;5027129;28;20045;-72
2024/02/21 07:58:47;;;;;;;59.60;23.35;;;;;;;8.14;63.42;95396.81;4979369;28;20108;-74
2024/02/21 08:01:18;;;;;;;87.38;32.33;;;;;;;8.11;64.62;95393.56;5025668;28;20474;-73
2024/02/21 08:03:43;;;;;;;107.55;36.35;;;;;;;7.83;65.67;95393.56;5000680;28;20476;-73
2024/02/21 08:06:11;;;;;;;120.25;38.30;;;;;;;7.65;65.73;95371.44;4975736;28;20045;-73
2024/02/21 08:08:37;;;;;;;66.10;28.33;;;;;;;7.54;66.36;95379.84;4971405;28;20516;-73
2024/02/21 08:11:02;;;;;;;34.83;18.88;;;;;;;7.52;65.49;95386.03;4993838;28;20091;-73
2024/02/21 08:13:28;;;;;;;79.20;32.17;;;;;;;7.54;66.96;95390.19;5028065;28;20037;-72
2024/02/21 08:15:54;;;;;;;79.55;32.50;;;;;;;7.42;67.95;95383.22;4999785;28;20420;-73
2024/02/21 08:18:19;;;;;;;87.65;35.70;;;;;;;7.33;67.89;95388.94;4980206;28;20087;-72
2024/02/21 08:20:44;;;;;;;49.67;26.15;;;;;;;7.11;68.43;95374.72;4987268;28;20509;-72
2024/02/21 08:23:10;;;;;;;118.32;53.08;;;;;;;7.27;68.47;95384.13;5017235;28;20029;-73
2024/02/21 08:25:35;;;;;;;86.85;40.75;;;;;;;7.50;67.56;95387.91;5034144;28;20030;-72
2024/02/21 08:28:01;;;;;;;70.40;38.17;;;;;;;7.57;68.17;95384.84;5015530;28;20022;-72
2024/02/21 08:30:26;;;;;;;50.58;26.65;;;;;;;7.15;69.04;95381.38;5015168;28;20492;-72
2024/02/21 08:32:53;;;;;;;47.13;24.95;;;;;;;7.44;68.38;95368.44;5033878;28;20044;-72
2024/02/21 08:35:19;;;;;;;52.45;26.23;;;;;;;6.87;69.18;95332.28;4999180;28;20140;-72
2024/02/21 08:37:47;;;;;;;45.38;24.65;;;;;;;6.98;69.99;95370.41;4990458;28;20017;-73
2024/02/21 08:40:13;;;;;;;45.47;25.10;;;;;;;7.12;69.93;95381.56;5030658;28;20495;-73
2024/02/21 08:42:38;;;;;;;43.40;24.02;;;;;;;7.47;69.01;95383.75;5010879;28;20031;-72
2024/02/21 08:45:04;;;;;;;49.78;24.58;;;;;;;7.45;68.66;95389.94;4995839;28;20070;-73
2024/02/21 08:47:30;;;;;;;41.42;24.15;;;;;;;7.48;68.78;95382.81;5000525;28;20049;-73
2024/02/21 08:49:55;;;;;;;41.45;22.98;;;;;;;7.54;68.56;95382.44;5014853;28;20396;-72
2024/02/21 08:52:20;;;;;;;42.30;23.00;;;;;;;7.76;68.80;95381.13;5033296;28;20033;-72
2024/02/21 08:54:46;;;;;;;42.22;22.17;;;;;;;7.57;67.12;95371.91;4995238;28;20488;-70
2024/02/21 08:57:13;;;;;;;38.85;20.90;;;;;;;7.55;68.31;95381.53;4997468;28;20038;-71
2024/02/21 08:59:39;;;;;;;37.35;21.08;;;;;;;7.66;67.44;95380.00;4996190;28;20389;-71
2024/02/21 09:02:07;;;;;;;38.83;21.70;;;;;;;7.92;65.60;95378.41;5015840;28;20061;-72
2024/02/21 09:04:32;;;;;;;43.17;22.35;;;;;;;7.55;68.44;95385.84;4995938;28;20148;-71
2024/02/21 09:06:57;;;;;;;44.80;23.58;;;;;;;7.80;67.41;95374.81;4996259;28;20508;-71
2024/02/21 09:09:23;;;;;;;32.80;17.67;;;;;;;7.48;64.82;95369.91;4981497;28;20041;-71
2024/02/21 09:11:48;;;;;;;35.15;19.15;;;;;;;7.52;66.21;95366.22;5033525;28;20026;-71
2024/02/21 09:14:14;;;;;;;40.25;21.25;;;;;;;7.60;67.05;95378.63;5033657;28;20042;-71
2024/02/21 09:16:39;;;;;;;32.30;17.52;;;;;;;7.80;64.52;95382.56;5033249;28;20022;-71
2024/02/21 09:19:04;;;;;;;34.70;19.00;;;;;;;7.60;65.73;95379.50;5015672;28;20030;-71
2024/02/21 09:21:30;;;;;;;33.80;17.73;;;;;;;7.72;65.45;95377.06;5015461;28;20013;-71
2024/02/21 09:23:55;;;;;;;29.58;17.90;;;;;;;7.97;64.56;95384.94;5015478;28;20026;-71
2024/02/21 09:26:21;;;;;;;26.70;15.95;;;;;;;8.03;62.92;95381.13;5015251;28;20025;-72
2024/02/21 09:28:46;;;;;;;29.98;16.23;;;;;;;8.26;61.73;95377.88;5033309;28;20079;-71
2024/02/21 09:31:11;;;;;;;30.23;18.33;;;;;;;8.41;61.97;95386.47;5015432;28;20037;-71
2024/02/21 09:33:37;;;;;;;23.70;14.63;;;;;;;7.76;61.37;95379.34;5009740;28;20026;-70
2024/02/21 09:36:05;;;;;;;27.15;16.15;;;;;;;8.04;62.07;95368.09;4998081;28;20069;-73
2024/02/21 09:38:31;;;;;;;24.60;14.88;;;;;;;8.44;60.81;95386.25;4992363;28;20543;-73
2024/02/21 09:41:00;;;;;;;51.38;26.13;;;;;;;8.78;59.76;95373.69;4975227;28;20031;-72
2024/02/21 09:43:25;;;;;;;34.10;17.83;;;;;;;8.89;59.15;95363.41;4992799;28;20027;-73
2024/02/21 09:45:55;;;;;;;40.13;22.30;;;;;;;9.08;58.37;95375.97;4951229;28;20089;-72
2024/02/21 09:48:42;;;;;;;29.70;16.88;;;;;;;9.12;57.98;95374.00;4976520;28;20444;-73
2024/02/21 09:51:09;;;;;;;58.00;24.70;;;;;;;8.82;59.18;95374.28;4964915;28;20046;-72
2024/02/21 09:53:34;;;;;;;28.30;15.65;;;;;;;8.56;60.21;95379.44;4993454;28;20027;-72
2024/02/21 09:56:00;;;;;;;28.98;16.60;;;;;;;8.36;61.30;95372.97;4991726;28;20485;-72
2024/02/21 09:58:27;;;;;;;33.83;20.90;;;;;;;8.38;61.38;95350.38;4991907;28;20543;-73
2024/02/21 10:00:52;;;;;;;25.15;14.25;;;;;;;8.47;60.38;95385.25;4987342;28;20038;-72
2024/02/21 10:03:18;;;;;;;26.02;15.27;;;;;;;8.43;60.07;95358.69;4975346;28;20077;-72
2024/02/21 10:05:47;;;;;;;29.25;16.70;;;;;;;8.88;59.71;95379.06;4975450;28;20029;-72
2024/02/21 10:08:14;;;;;;;31.35;16.85;;;;;;;9.11;59.92;95377.50;4956421;28;20039;-71
2024/02/21 10:10:46;;;;;;;28.40;16.00;;;;;;;8.88;58.79;95373.88;4974150;28;20031;-72
2024/02/21 10:13:24;;;;;;;32.65;18.15;;;;;;;8.88;60.40;95372.09;4975533;28;20041;-72
2024/02/21 10:15:49;;;;;;;28.52;16.83;;;;;;;8.61;60.48;95367.03;4958797;28;20046;-72
2024/02/21 10:18:15;;;;;;;28.27;15.90;;;;;;;8.50;59.37;95365.16;4969347;28;20122;-73
2024/02/21 10:20:40;;;;;;;28.15;16.88;;;;;;;8.87;58.76;95367.88;4956142;28;20042;-73
2024/02/21 10:23:09;;;;;;;26.42;15.15;;;;;;;8.92;58.19;95368.41;4988048;28;20042;-73
2024/02/21 10:25:41;;;;;;;37.15;20.20;;;;;;;9.28;58.65;95369.41;4991553;28;20420;-72
2024/02/21 10:28:06;;;;;;;21.75;13.55;;;;;;;9.06;57.25;95367.47;4975879;28;20031;-73
2024/02/21 10:30:32;;;;;;;20.90;12.60;;;;;;;8.95;57.28;95357.81;4991257;28;20049;-72
2024/02/21 10:32:58;;;;;;;25.65;16.27;;;;;;;9.22;56.76;95341.31;4989552;28;20022;-71
2024/02/21 10:35:27;;;;;;;21.05;12.70;;;;;;;9.27;56.29;95349.59;4971721;28;20058;-71
2024/02/21 10:37:55;;;;;;;91.15;41.70;;;;;;;9.36;56.38;95342.94;4980234;28;20041;-71
2024/02/21 10:40:23;;;;;;;46.08;24.50;;;;;;;9.57;55.22;95335.44;4975364;28;20080;-71
2024/02/21 10:42:48;;;;;;;25.58;16.42;;;;;;;9.53;55.16;95321.84;4992281;28;20026;-72
2024/02/21 10:45:13;;;;;;;23.83;14.77;;;;;;;9.66;54.75;95321.81;4991046;28;20026;-73
2024/02/21 10:47:39;;;;;;;34.03;21.25;;;;;;;9.85;54.05;95314.34;4970722;28;20035;-71
2024/02/21 10:50:05;;;;;;;21.02;11.63;;;;;;;9.77;53.29;95316.66;4963105;28;20039;-71
2024/02/21 10:52:51;;;;;;;21.98;13.65;;;;;;;9.92;53.91;95319.94;4960566;28;20034;-71
2024/02/21 10:55:23;;;;;;;20.85;12.20;;;;;;;9.40;55.14;95311.50;4987650;28;20065;-71
2024/02/21 10:57:48;;;;;;;25.83;13.77;;;;;;;9.36;55.49;95312.69;4990618;28;20038;-72
2024/02/21 11:00:15;;;;;;;23.33;13.98;;;;;;;9.14;55.53;95312.50;4990977;28;20034;-71
2024/02/21 11:02:40;;;;;;;22.25;13.07;;;;;;;9.26;54.87;95295.28;4971508;28;20073;-71
2024/02/21 11:05:06;;;;;;;20.85;13.07;;;;;;;9.14;55.79;95292.59;4974481;28;20038;-72
2024/02/21 11:07:32;;;;;;;19.80;11.35;;;;;;;9.14;54.49;95290.00;4974721;28;20038;-71
2024/02/21 11:09:58;;;;;;;17.77;11.27;;;;;;;9.17;55.64;95283.78;4974615;28;20035;-72
2024/02/21 11:12:25;;;;;;;20.90;14.50;;;;;;;9.44;55.09;95286.19;4990833;28;20037;-72
2024/02/21 11:14:50;;;;;;;46.58;24.20;;;;;;;9.42;54.73;95284.63;4974416;28;20069;-71
2024/02/21 11:17:21;;;;;;;18.88;11.15;;;;;;;9.62;53.52;95281.47;4991916;28;20030;-71
2024/02/21 11:19:46;;;;;;;18.23;11.32;;;;;;;9.30;53.94;95286.31;4992041;28;20378;-71
2024/02/21 11:22:19;;;;;;;16.75;10.43;;;;;;;9.18;53.93;95288.03;4990669;28;20036;-71